sensor_id;sensor_type;location;lat;lon;timestamp;pressure;altitude;pressure_sealevel;temperature;humidity
22572;BME280;11452;53.368;14.658;2023-07-22T00:00:53;100456.08;;;17.47;68.58
22572;BME280;11452;53.368;14.658;2023-07-22T00:06:07;100449.77;;;17.42;69.00
22572;BME280;11452;53.368;14.658;2023-07-22T00:11:13;100447.11;;;17.37;68.94
22572;BME280;11452;53.368;14.658;2023-07-22T00:16:19;100439.77;;;17.33;69.33
22572;BME280;11452;53.368;14.658;2023-07-22T00:21:25;100452.09;;;17.26;69.40
22572;BME280;11452;53.368;14.658;2023-07-22T00:26:30;100450.23;;;17.17;69.50
22572;BME280;11452;53.368;14.658;2023-07-22T00:31:36;100443.02;;;17.12;69.77
22572;BME280;11452;53.368;14.658;2023-07-22T00:36:42;100439.23;;;17.09;69.87
22572;BME280;11452;53.368;14.658;2023-07-22T00:41:49;100436.86;;;17.00;70.18
22572;BME280;11452;53.368;14.658;2023-07-22T00:46:56;100445.09;;;16.99;70.35
22572;BME280;11452;53.368;14.658;2023-07-22T00:52:04;100439.59;;;16.94;70.58
22572;BME280;11452;53.368;14.658;2023-07-22T00:57:10;100435.94;;;16.90;70.53
22572;BME280;11452;53.368;14.658;2023-07-22T01:02:23;100436.63;;;16.82;70.88
22572;BME280;11452;53.368;14.658;2023-07-22T01:07:24;100428.43;;;16.78;71.16
22572;BME280;11452;53.368;14.658;2023-07-22T01:12:31;100428.82;;;16.74;71.19
22572;BME280;11452;53.368;14.658;2023-07-22T01:17:39;100428.46;;;16.73;71.40
22572;BME280;11452;53.368;14.658;2023-07-22T01:22:50;100427.84;;;16.75;71.51
22572;BME280;11452;53.368;14.658;2023-07-22T01:27:57;100423.16;;;16.77;71.50
22572;BME280;11452;53.368;14.658;2023-07-22T01:33:02;100412.83;;;16.82;71.58
22572;BME280;11452;53.368;14.658;2023-07-22T01:38:08;100406.97;;;16.77;71.49
22572;BME280;11452;53.368;14.658;2023-07-22T01:43:14;100402.95;;;16.71;71.64
22572;BME280;11452;53.368;14.658;2023-07-22T01:48:20;100406.44;;;16.68;71.76
22572;BME280;11452;53.368;14.658;2023-07-22T01:53:26;100408.28;;;16.67;72.11
22572;BME280;11452;53.368;14.658;2023-07-22T01:58:33;100398.55;;;16.70;72.36
22572;BME280;11452;53.368;14.658;2023-07-22T02:03:39;100399.45;;;16.59;72.46
22572;BME280;11452;53.368;14.658;2023-07-22T02:08:45;100399.45;;;16.59;72.80
22572;BME280;11452;53.368;14.658;2023-07-22T02:13:50;100406.08;;;16.61;73.19
22572;BME280;11452;53.368;14.658;2023-07-22T02:18:56;100399.35;;;16.55;73.50
22572;BME280;11452;53.368;14.658;2023-07-22T02:24:02;100402.61;;;16.49;73.69
22572;BME280;11452;53.368;14.658;2023-07-22T02:29:08;100390.59;;;16.48;74.13
22572;BME280;11452;53.368;14.658;2023-07-22T02:34:14;100401.62;;;16.50;74.47
22572;BME280;11452;53.368;14.658;2023-07-22T02:39:21;100411.76;;;16.52;74.61
22572;BME280;11452;53.368;14.658;2023-07-22T02:44:26;100405.73;;;16.54;74.97
22572;BME280;11452;53.368;14.658;2023-07-22T02:49:32;100406.56;;;16.60;74.92
22572;BME280;11452;53.368;14.658;2023-07-22T02:54:40;100417.13;;;16.58;74.97
22572;BME280;11452;53.368;14.658;2023-07-22T02:59:46;100422.05;;;16.53;75.14
22572;BME280;11452;53.368;14.658;2023-07-22T03:04:52;100413.78;;;16.45;75.47
22572;BME280;11452;53.368;14.658;2023-07-22T03:09:58;100418.20;;;16.46;75.73
22572;BME280;11452;53.368;14.658;2023-07-22T03:15:04;100424.08;;;16.45;76.13
22572;BME280;11452;53.368;14.658;2023-07-22T03:20:14;100426.39;;;16.50;76.07
22572;BME280;11452;53.368;14.658;2023-07-22T03:25:21;100432.92;;;16.42;76.17
22572;BME280;11452;53.368;14.658;2023-07-22T03:30:27;100432.69;;;16.39;76.40
22572;BME280;11452;53.368;14.658;2023-07-22T03:35:34;100460.17;;;16.33;76.65
22572;BME280;11452;53.368;14.658;2023-07-22T03:40:41;100465.98;;;16.28;76.90
22572;BME280;11452;53.368;14.658;2023-07-22T03:45:47;100459.62;;;16.24;77.07
22572;BME280;11452;53.368;14.658;2023-07-22T03:50:52;100466.00;;;16.23;77.40
22572;BME280;11452;53.368;14.658;2023-07-22T03:56:00;100466.98;;;16.22;77.48
22572;BME280;11452;53.368;14.658;2023-07-22T04:01:05;100472.74;;;16.23;77.76
22572;BME280;11452;53.368;14.658;2023-07-22T04:06:11;100481.44;;;16.26;77.73
22572;BME280;11452;53.368;14.658;2023-07-22T04:11:17;100485.00;;;16.21;77.75
22572;BME280;11452;53.368;14.658;2023-07-22T04:16:23;100484.77;;;16.19;78.05
22572;BME280;11452;53.368;14.658;2023-07-22T04:21:30;100493.45;;;16.22;78.26
22572;BME280;11452;53.368;14.658;2023-07-22T04:26:35;100494.20;;;16.19;78.56
22572;BME280;11452;53.368;14.658;2023-07-22T04:31:41;100506.47;;;16.17;78.75
22572;BME280;11452;53.368;14.658;2023-07-22T04:36:47;100508.78;;;16.22;79.16
22572;BME280;11452;53.368;14.658;2023-07-22T04:41:53;100517.98;;;16.19;79.05
22572;BME280;11452;53.368;14.658;2023-07-22T04:46:59;100514.41;;;16.30;79.24
22572;BME280;11452;53.368;14.658;2023-07-22T04:52:05;100506.33;;;16.24;79.32
22572;BME280;11452;53.368;14.658;2023-07-22T04:57:11;100504.67;;;16.39;79.64
22572;BME280;11452;53.368;14.658;2023-07-22T05:02:17;100514.97;;;16.39;79.50
22572;BME280;11452;53.368;14.658;2023-07-22T05:07:23;100516.41;;;16.49;79.85
22572;BME280;11452;53.368;14.658;2023-07-22T05:12:29;100520.29;;;16.56;79.79
22572;BME280;11452;53.368;14.658;2023-07-22T05:17:34;100520.17;;;16.63;79.69
22572;BME280;11452;53.368;14.658;2023-07-22T05:22:40;100522.28;;;16.80;79.83
22572;BME280;11452;53.368;14.658;2023-07-22T05:27:46;100528.20;;;16.95;79.68
22572;BME280;11452;53.368;14.658;2023-07-22T05:32:52;100541.45;;;16.98;79.31
22572;BME280;11452;53.368;14.658;2023-07-22T05:37:58;100535.66;;;17.03;78.98
22572;BME280;11452;53.368;14.658;2023-07-22T05:43:05;100541.93;;;17.18;78.99
22572;BME280;11452;53.368;14.658;2023-07-22T05:48:11;100541.34;;;17.45;79.77
22572;BME280;11452;53.368;14.658;2023-07-22T05:53:17;100544.22;;;17.74;79.77
22572;BME280;11452;53.368;14.658;2023-07-22T05:58:23;100546.21;;;17.97;79.08
22572;BME280;11452;53.368;14.658;2023-07-22T06:03:29;100545.53;;;17.89;77.20
22572;BME280;11452;53.368;14.658;2023-07-22T06:08:34;100550.86;;;18.20;77.66
22572;BME280;11452;53.368;14.658;2023-07-22T06:13:40;100562.16;;;18.34;76.40
22572;BME280;11452;53.368;14.658;2023-07-22T06:18:46;100569.23;;;18.51;75.27
22572;BME280;11452;53.368;14.658;2023-07-22T06:23:51;100571.80;;;18.52;74.32
22572;BME280;11452;53.368;14.658;2023-07-22T06:28:57;100568.45;;;18.54;72.83
22572;BME280;11452;53.368;14.658;2023-07-22T06:34:03;100580.68;;;18.58;72.65
22572;BME280;11452;53.368;14.658;2023-07-22T06:39:09;100577.89;;;18.70;71.34
22572;BME280;11452;53.368;14.658;2023-07-22T06:44:14;100573.59;;;18.77;71.02
22572;BME280;11452;53.368;14.658;2023-07-22T06:49:20;100574.73;;;18.84;70.09
22572;BME280;11452;53.368;14.658;2023-07-22T06:54:26;100577.52;;;18.78;68.73
22572;BME280;11452;53.368;14.658;2023-07-22T06:59:33;100573.09;;;19.06;68.73
22572;BME280;11452;53.368;14.658;2023-07-22T07:04:38;100575.50;;;18.99;66.96
22572;BME280;11452;53.368;14.658;2023-07-22T07:09:45;100578.93;;;19.01;66.14
22572;BME280;11452;53.368;14.658;2023-07-22T07:14:51;100577.22;;;19.10;65.45
22572;BME280;11452;53.368;14.658;2023-07-22T07:19:57;100597.77;;;18.84;63.64
22572;BME280;11452;53.368;14.658;2023-07-22T07:25:03;100581.92;;;18.98;62.66
22572;BME280;11452;53.368;14.658;2023-07-22T07:30:10;100594.30;;;19.20;62.71
22572;BME280;11452;53.368;14.658;2023-07-22T07:35:16;100590.55;;;19.41;62.78
22572;BME280;11452;53.368;14.658;2023-07-22T07:40:21;100605.89;;;19.36;61.03
22572;BME280;11452;53.368;14.658;2023-07-22T07:45:27;100599.65;;;19.16;60.62
22572;BME280;11452;53.368;14.658;2023-07-22T07:50:33;100615.16;;;19.43;61.91
22572;BME280;11452;53.368;14.658;2023-07-22T07:55:39;100616.57;;;19.66;61.01
22572;BME280;11452;53.368;14.658;2023-07-22T08:00:45;100609.67;;;19.72;60.47
22572;BME280;11452;53.368;14.658;2023-07-22T08:05:50;100625.46;;;19.86;58.54
22572;BME280;11452;53.368;14.658;2023-07-22T08:11:05;100624.85;;;20.02;59.16
22572;BME280;11452;53.368;14.658;2023-07-22T08:16:13;100623.42;;;19.84;57.93
22572;BME280;11452;53.368;14.658;2023-07-22T08:21:19;100612.38;;;19.95;56.88
22572;BME280;11452;53.368;14.658;2023-07-22T08:26:25;100634.20;;;20.03;55.85
22572;BME280;11452;53.368;14.658;2023-07-22T08:31:31;100641.58;;;20.11;55.64
22572;BME280;11452;53.368;14.658;2023-07-22T08:36:37;100631.02;;;20.08;55.01
22572;BME280;11452;53.368;14.658;2023-07-22T08:41:46;100635.97;;;20.22;55.31
22572;BME280;11452;53.368;14.658;2023-07-22T08:46:54;100628.34;;;20.26;53.85
22572;BME280;11452;53.368;14.658;2023-07-22T08:52:02;100641.22;;;20.65;53.52
22572;BME280;11452;53.368;14.658;2023-07-22T08:57:11;100653.57;;;20.59;52.99
22572;BME280;11452;53.368;14.658;2023-07-22T09:02:17;100652.31;;;20.54;51.65
22572;BME280;11452;53.368;14.658;2023-07-22T09:07:23;100649.89;;;20.51;51.53
22572;BME280;11452;53.368;14.658;2023-07-22T09:12:29;100659.88;;;20.78;51.45
22572;BME280;11452;53.368;14.658;2023-07-22T09:17:36;100668.03;;;20.64;50.41
22572;BME280;11452;53.368;14.658;2023-07-22T09:22:47;100666.56;;;20.38;50.34
22572;BME280;11452;53.368;14.658;2023-07-22T09:27:58;100688.04;;;20.35;49.36
22572;BME280;11452;53.368;14.658;2023-07-22T09:33:05;100671.64;;;20.27;50.06
22572;BME280;11452;53.368;14.658;2023-07-22T09:38:13;100669.27;;;20.28;50.07
22572;BME280;11452;53.368;14.658;2023-07-22T09:43:22;100664.20;;;20.39;50.83
22572;BME280;11452;53.368;14.658;2023-07-22T09:48:29;100668.25;;;20.53;50.31
22572;BME280;11452;53.368;14.658;2023-07-22T09:53:35;100664.05;;;21.21;51.12
22572;BME280;11452;53.368;14.658;2023-07-22T09:58:43;100653.72;;;21.25;49.69
22572;BME280;11452;53.368;14.658;2023-07-22T10:03:54;100668.41;;;21.00;48.77
22572;BME280;11452;53.368;14.658;2023-07-22T10:09:03;100658.59;;;21.03;48.42
22572;BME280;11452;53.368;14.658;2023-07-22T10:14:13;100669.53;;;21.25;48.96
22572;BME280;11452;53.368;14.658;2023-07-22T10:19:19;100664.34;;;21.36;48.37
22572;BME280;11452;53.368;14.658;2023-07-22T10:24:28;100657.77;;;21.42;48.72
22572;BME280;11452;53.368;14.658;2023-07-22T10:29:34;100651.13;;;21.89;48.51
22572;BME280;11452;53.368;14.658;2023-07-22T10:34:40;100656.85;;;21.82;47.53
22572;BME280;11452;53.368;14.658;2023-07-22T10:39:46;100660.62;;;21.85;47.15
22572;BME280;11452;53.368;14.658;2023-07-22T10:44:52;100679.38;;;21.96;47.20
22572;BME280;11452;53.368;14.658;2023-07-22T10:50:04;100666.05;;;22.10;45.98
22572;BME280;11452;53.368;14.658;2023-07-22T10:55:14;100672.70;;;22.12;45.75
22572;BME280;11452;53.368;14.658;2023-07-22T11:00:21;100682.70;;;22.37;46.01
22572;BME280;11452;53.368;14.658;2023-07-22T11:05:46;100705.59;;;21.97;44.76
22572;BME280;11452;53.368;14.658;2023-07-22T11:10:37;100675.71;;;22.01;44.71
22572;BME280;11452;53.368;14.658;2023-07-22T11:15:47;100691.70;;;22.00;44.66
22572;BME280;11452;53.368;14.658;2023-07-22T11:20:56;100689.83;;;22.34;44.31
22572;BME280;11452;53.368;14.658;2023-07-22T11:26:02;100697.66;;;22.33;43.77
22572;BME280;11452;53.368;14.658;2023-07-22T11:31:08;100688.37;;;22.52;43.05
22572;BME280;11452;53.368;14.658;2023-07-22T11:36:16;100692.98;;;22.18;41.78
22572;BME280;11452;53.368;14.658;2023-07-22T11:41:22;100686.44;;;22.36;41.66
22572;BME280;11452;53.368;14.658;2023-07-22T11:46:29;100703.42;;;22.26;40.69
22572;BME280;11452;53.368;14.658;2023-07-22T11:51:35;100686.09;;;22.35;40.71
22572;BME280;11452;53.368;14.658;2023-07-22T11:56:41;100698.81;;;22.69;40.93
22572;BME280;11452;53.368;14.658;2023-07-22T12:01:47;100686.84;;;22.54;40.10
22572;BME280;11452;53.368;14.658;2023-07-22T12:06:53;100711.14;;;22.39;40.11
22572;BME280;11452;53.368;14.658;2023-07-22T12:11:59;100698.97;;;22.67;40.47
22572;BME280;11452;53.368;14.658;2023-07-22T12:17:08;100717.11;;;22.85;40.49
22572;BME280;11452;53.368;14.658;2023-07-22T12:22:14;100718.56;;;22.67;39.09
22572;BME280;11452;53.368;14.658;2023-07-22T12:27:19;100717.19;;;22.59;38.85
22572;BME280;11452;53.368;14.658;2023-07-22T12:32:25;100697.86;;;22.78;39.80
22572;BME280;11452;53.368;14.658;2023-07-22T12:37:31;100692.02;;;22.73;39.51
22572;BME280;11452;53.368;14.658;2023-07-22T12:42:37;100699.84;;;22.72;39.06
22572;BME280;11452;53.368;14.658;2023-07-22T12:47:43;100719.16;;;22.87;39.11
22572;BME280;11452;53.368;14.658;2023-07-22T12:52:49;100681.16;;;22.77;37.90
22572;BME280;11452;53.368;14.658;2023-07-22T12:57:55;100677.61;;;23.01;37.83
22572;BME280;11452;53.368;14.658;2023-07-22T13:03:00;100698.24;;;23.03;37.01
22572;BME280;11452;53.368;14.658;2023-07-22T13:08:06;100690.87;;;22.84;37.37
22572;BME280;11452;53.368;14.658;2023-07-22T13:13:12;100694.51;;;22.54;37.40
22572;BME280;11452;53.368;14.658;2023-07-22T13:18:18;100706.45;;;22.65;37.50
22572;BME280;11452;53.368;14.658;2023-07-22T13:23:24;100701.69;;;22.59;37.83
22572;BME280;11452;53.368;14.658;2023-07-22T13:28:29;100686.80;;;22.79;37.82
22572;BME280;11452;53.368;14.658;2023-07-22T13:33:36;100699.91;;;22.84;37.26
22572;BME280;11452;53.368;14.658;2023-07-22T13:38:41;100694.52;;;23.12;37.15
22572;BME280;11452;53.368;14.658;2023-07-22T13:43:47;100693.98;;;22.97;37.13
22572;BME280;11452;53.368;14.658;2023-07-22T13:48:53;100685.15;;;23.43;37.84
22572;BME280;11452;53.368;14.658;2023-07-22T13:53:59;100706.67;;;23.67;37.26
22572;BME280;11452;53.368;14.658;2023-07-22T13:59:04;100700.67;;;23.88;37.62
22572;BME280;11452;53.368;14.658;2023-07-22T14:04:11;100703.72;;;23.97;36.91
22572;BME280;11452;53.368;14.658;2023-07-22T14:09:16;100702.05;;;23.92;37.02
22572;BME280;11452;53.368;14.658;2023-07-22T14:14:22;100716.85;;;24.09;36.20
22572;BME280;11452;53.368;14.658;2023-07-22T14:19:30;100707.53;;;23.67;36.96
22572;BME280;11452;53.368;14.658;2023-07-22T14:24:36;100709.92;;;23.74;37.21
22572;BME280;11452;53.368;14.658;2023-07-22T14:29:42;100698.46;;;23.91;37.09
22572;BME280;11452;53.368;14.658;2023-07-22T14:34:47;100694.66;;;24.08;37.05
22572;BME280;11452;53.368;14.658;2023-07-22T14:39:53;100697.27;;;23.90;36.57
22572;BME280;11452;53.368;14.658;2023-07-22T14:44:59;100691.97;;;23.80;36.32
22572;BME280;11452;53.368;14.658;2023-07-22T14:50:06;100703.09;;;23.70;36.37
22572;BME280;11452;53.368;14.658;2023-07-22T14:55:12;100683.10;;;23.78;36.79
22572;BME280;11452;53.368;14.658;2023-07-22T15:00:18;100687.33;;;24.01;36.32
22572;BME280;11452;53.368;14.658;2023-07-22T15:05:24;100680.16;;;24.04;35.95
22572;BME280;11452;53.368;14.658;2023-07-22T15:10:30;100682.85;;;24.28;35.16
22572;BME280;11452;53.368;14.658;2023-07-22T15:15:36;100686.59;;;24.15;34.63
22572;BME280;11452;53.368;14.658;2023-07-22T15:20:43;100702.22;;;23.86;34.84
22572;BME280;11452;53.368;14.658;2023-07-22T15:25:49;100699.00;;;23.70;34.96
22572;BME280;11452;53.368;14.658;2023-07-22T15:30:55;100704.26;;;23.47;35.19
22572;BME280;11452;53.368;14.658;2023-07-22T15:36:02;100698.63;;;23.33;35.45
22572;BME280;11452;53.368;14.658;2023-07-22T15:41:08;100696.05;;;23.11;35.78
22572;BME280;11452;53.368;14.658;2023-07-22T15:46:14;100690.61;;;23.31;35.93
22572;BME280;11452;53.368;14.658;2023-07-22T15:51:20;100679.52;;;23.41;36.03
22572;BME280;11452;53.368;14.658;2023-07-22T15:56:26;100683.61;;;23.41;36.13
22572;BME280;11452;53.368;14.658;2023-07-22T16:01:32;100678.51;;;23.30;35.85
22572;BME280;11452;53.368;14.658;2023-07-22T16:06:38;100667.91;;;23.92;39.22
22572;BME280;11452;53.368;14.658;2023-07-22T16:11:44;100673.05;;;24.46;35.84
22572;BME280;11452;53.368;14.658;2023-07-22T16:16:49;100677.08;;;24.07;35.07
22572;BME280;11452;53.368;14.658;2023-07-22T16:21:57;100676.45;;;23.80;35.01
22572;BME280;11452;53.368;14.658;2023-07-22T16:27:03;100665.03;;;23.48;35.21
22572;BME280;11452;53.368;14.658;2023-07-22T16:32:09;100671.52;;;23.27;35.22
22572;BME280;11452;53.368;14.658;2023-07-22T16:37:14;100683.94;;;23.09;35.58
22572;BME280;11452;53.368;14.658;2023-07-22T16:42:20;100676.27;;;23.09;35.82
22572;BME280;11452;53.368;14.658;2023-07-22T16:47:26;100672.86;;;22.99;35.67
22572;BME280;11452;53.368;14.658;2023-07-22T16:52:32;100677.80;;;23.03;35.82
22572;BME280;11452;53.368;14.658;2023-07-22T16:57:38;100678.47;;;22.93;35.92
22572;BME280;11452;53.368;14.658;2023-07-22T17:02:45;100671.28;;;22.84;35.87
22572;BME280;11452;53.368;14.658;2023-07-22T17:07:51;100672.49;;;22.82;36.08
22572;BME280;11452;53.368;14.658;2023-07-22T17:12:57;100674.48;;;22.75;36.44
22572;BME280;11452;53.368;14.658;2023-07-22T17:18:03;100670.21;;;22.73;36.53
22572;BME280;11452;53.368;14.658;2023-07-22T17:23:10;100669.17;;;22.70;36.83
22572;BME280;11452;53.368;14.658;2023-07-22T17:28:16;100670.47;;;22.96;37.42
22572;BME280;11452;53.368;14.658;2023-07-22T17:33:24;100670.64;;;22.94;38.11
22572;BME280;11452;53.368;14.658;2023-07-22T17:38:30;100673.50;;;22.85;38.60
22572;BME280;11452;53.368;14.658;2023-07-22T17:43:36;100679.30;;;22.77;39.36
22572;BME280;11452;53.368;14.658;2023-07-22T17:48:42;100674.30;;;22.73;39.97
22572;BME280;11452;53.368;14.658;2023-07-22T17:53:50;100674.44;;;22.59;40.36
22572;BME280;11452;53.368;14.658;2023-07-22T17:58:56;100668.48;;;22.60;40.98
22572;BME280;11452;53.368;14.658;2023-07-22T18:04:02;100673.75;;;22.57;40.92
22572;BME280;11452;53.368;14.658;2023-07-22T18:09:08;100666.01;;;22.36;40.73
22572;BME280;11452;53.368;14.658;2023-07-22T18:14:14;100668.00;;;22.22;40.69
22572;BME280;11452;53.368;14.658;2023-07-22T18:19:19;100664.42;;;22.22;40.91
22572;BME280;11452;53.368;14.658;2023-07-22T18:24:25;100658.25;;;22.16;40.60
22572;BME280;11452;53.368;14.658;2023-07-22T18:29:31;100661.09;;;22.02;40.65
22572;BME280;11452;53.368;14.658;2023-07-22T18:34:37;100661.16;;;21.92;40.61
22572;BME280;11452;53.368;14.658;2023-07-22T18:39:43;100669.60;;;21.81;40.66
22572;BME280;11452;53.368;14.658;2023-07-22T18:44:48;100666.00;;;21.76;40.97
22572;BME280;11452;53.368;14.658;2023-07-22T18:49:55;100668.52;;;21.70;40.94
22572;BME280;11452;53.368;14.658;2023-07-22T18:55:00;100667.95;;;21.62;41.17
22572;BME280;11452;53.368;14.658;2023-07-22T19:00:07;100660.95;;;21.60;41.36
22572;BME280;11452;53.368;14.658;2023-07-22T19:05:13;100665.70;;;21.58;41.48
22572;BME280;11452;53.368;14.658;2023-07-22T19:10:19;100670.59;;;21.50;41.64
22572;BME280;11452;53.368;14.658;2023-07-22T19:15:24;100673.23;;;21.42;41.74
22572;BME280;11452;53.368;14.658;2023-07-22T19:20:30;100674.86;;;21.35;41.97
22572;BME280;11452;53.368;14.658;2023-07-22T19:25:39;100670.44;;;21.34;42.17
22572;BME280;11452;53.368;14.658;2023-07-22T19:30:45;100672.41;;;21.24;42.31
22572;BME280;11452;53.368;14.658;2023-07-22T19:36:10;100673.21;;;21.20;42.64
22572;BME280;11452;53.368;14.658;2023-07-22T19:41:16;100678.65;;;21.20;42.70
22572;BME280;11452;53.368;14.658;2023-07-22T19:46:22;100679.02;;;21.07;42.99
22572;BME280;11452;53.368;14.658;2023-07-22T19:51:28;100676.45;;;21.06;43.28
22572;BME280;11452;53.368;14.658;2023-07-22T19:56:34;100675.95;;;21.06;43.46
22572;BME280;11452;53.368;14.658;2023-07-22T20:01:40;100677.92;;;21.00;43.47
22572;BME280;11452;53.368;14.658;2023-07-22T20:06:45;100670.71;;;20.91;43.78
22572;BME280;11452;53.368;14.658;2023-07-22T20:11:51;100666.44;;;20.89;44.21
22572;BME280;11452;53.368;14.658;2023-07-22T20:16:57;100659.14;;;20.89;44.39
22572;BME280;11452;53.368;14.658;2023-07-22T20:22:03;100663.02;;;20.87;44.54
22572;BME280;11452;53.368;14.658;2023-07-22T20:27:09;100662.97;;;20.83;44.70
22572;BME280;11452;53.368;14.658;2023-07-22T20:32:15;100662.25;;;20.77;45.02
22572;BME280;11452;53.368;14.658;2023-07-22T20:37:22;100672.11;;;20.78;45.27
22572;BME280;11452;53.368;14.658;2023-07-22T20:42:28;100657.31;;;20.76;45.39
22572;BME280;11452;53.368;14.658;2023-07-22T20:47:34;100653.23;;;20.76;45.55
22572;BME280;11452;53.368;14.658;2023-07-22T20:52:40;100659.62;;;20.71;45.79
22572;BME280;11452;53.368;14.658;2023-07-22T20:57:46;100654.55;;;20.72;46.00
22572;BME280;11452;53.368;14.658;2023-07-22T21:02:51;100656.56;;;20.70;45.95
22572;BME280;11452;53.368;14.658;2023-07-22T21:07:58;100651.58;;;20.65;46.26
22572;BME280;11452;53.368;14.658;2023-07-22T21:13:03;100645.14;;;20.66;46.42
22572;BME280;11452;53.368;14.658;2023-07-22T21:18:11;100649.37;;;20.65;46.53
22572;BME280;11452;53.368;14.658;2023-07-22T21:23:17;100646.65;;;20.65;46.67
22572;BME280;11452;53.368;14.658;2023-07-22T21:28:23;100646.45;;;20.62;46.78
22572;BME280;11452;53.368;14.658;2023-07-22T21:33:29;100653.04;;;20.60;46.86
22572;BME280;11452;53.368;14.658;2023-07-22T21:38:35;100644.06;;;20.59;46.99
22572;BME280;11452;53.368;14.658;2023-07-22T21:43:42;100639.28;;;20.57;47.04
22572;BME280;11452;53.368;14.658;2023-07-22T21:48:48;100625.20;;;20.58;47.19
22572;BME280;11452;53.368;14.658;2023-07-22T21:53:54;100621.44;;;20.55;47.27
22572;BME280;11452;53.368;14.658;2023-07-22T21:59:00;100622.59;;;20.52;47.35
22572;BME280;11452;53.368;14.658;2023-07-22T22:04:06;100623.95;;;20.52;47.50
22572;BME280;11452;53.368;14.658;2023-07-22T22:09:12;100630.89;;;20.51;47.48
22572;BME280;11452;53.368;14.658;2023-07-22T22:14:19;100626.26;;;20.47;47.71
22572;BME280;11452;53.368;14.658;2023-07-22T22:19:25;100619.82;;;20.48;47.67
22572;BME280;11452;53.368;14.658;2023-07-22T22:24:31;100613.33;;;20.45;47.85
22572;BME280;11452;53.368;14.658;2023-07-22T22:29:37;100608.41;;;20.45;47.89
22572;BME280;11452;53.368;14.658;2023-07-22T22:34:43;100614.14;;;20.42;48.00
22572;BME280;11452;53.368;14.658;2023-07-22T22:39:49;100615.33;;;20.39;48.16
22572;BME280;11452;53.368;14.658;2023-07-22T22:44:55;100609.74;;;20.41;48.26
22572;BME280;11452;53.368;14.658;2023-07-22T22:50:01;100611.09;;;20.41;48.29
22572;BME280;11452;53.368;14.658;2023-07-22T22:55:07;100609.05;;;20.43;48.35
22572;BME280;11452;53.368;14.658;2023-07-22T23:00:14;100612.26;;;20.38;48.33
22572;BME280;11452;53.368;14.658;2023-07-22T23:05:21;100621.25;;;20.38;48.43
22572;BME280;11452;53.368;14.658;2023-07-22T23:10:27;100629.41;;;20.38;48.50
22572;BME280;11452;53.368;14.658;2023-07-22T23:15:33;100639.77;;;20.29;48.44
22572;BME280;11452;53.368;14.658;2023-07-22T23:20:39;100647.13;;;20.19;48.76
22572;BME280;11452;53.368;14.658;2023-07-22T23:25:45;100641.22;;;20.24;48.88
22572;BME280;11452;53.368;14.658;2023-07-22T23:30:55;100643.20;;;20.18;49.04
22572;BME280;11452;53.368;14.658;2023-07-22T23:36:02;100657.42;;;20.16;49.30
22572;BME280;11452;53.368;14.658;2023-07-22T23:41:09;100651.86;;;19.94;49.61
22572;BME280;11452;53.368;14.658;2023-07-22T23:46:14;100652.57;;;19.96;50.33
22572;BME280;11452;53.368;14.658;2023-07-22T23:51:20;100648.65;;;19.94;50.60
22572;BME280;11452;53.368;14.658;2023-07-22T23:56:27;100642.84;;;20.03;51.11
